Flight Track Log - Related Links

Times and Time Zones

All times are in EDT time to prevent confusion due to time zone crossing. See the N618JB flight status page for this flight to view local times or setup timezone preferences in your user account.

Time Position Orientation Groundspeed Altitude Reporting Facility
EDT Latitude Longitude Course Direction KTS MPH feet Rate Location/Type
Thu 08:31:41 AM 40.6667 -74.1833 246° West 171 197 1,500  Level New York TRACON
Thu 08:32:36 AM 40.6167 -74.2167 207° Southwest 207 238 2,600 2,035 Climbing New York TRACON
Thu 08:33:36 AM 40.6000 -74.3000 255° West 264 304 5,400 3,158 Climbing New York TRACON
Thu 08:34:00 AM 40.5675 -74.5271 244° Southwest  Level FlightAware Approximate
Thu 08:34:30 AM 40.6000 -74.3833 270° West 260 299 8,600  Level New York TRACON
Thu 08:35:00 AM 40.5214 -74.6536 244° Southwest  Level FlightAware Approximate
Thu 08:35:36 AM 40.5833 -74.4833 258° West 287 330 11,000  Level New York TRACON
Thu 08:36:00 AM 40.4783 -74.7818 246° West  Level FlightAware Approximate
Thu 08:37:07 AM 40.5331 -74.6594 249° West 330 380 13,800  Level New York Center
Thu 08:38:05 AM 40.4872 -74.7797 243° Southwest 358 412 16,300 2,186 Climbing New York Center
Thu 08:39:05 AM 40.4667 -74.8958 257° West 368 423 18,100 1,884 Climbing New York Center
Thu 08:40:06 AM 40.4325 -75.0328 252° West 368 423 20,100 1,900 Climbing New York Center
Thu 08:41:05 AM 40.4047 -75.1647 255° West 368 423 21,900 1,750 Climbing New York Center
Thu 08:42:06 AM 40.3747 -75.2961 253° West 376 433 23,600 1,587 Climbing New York Center
Thu 08:43:06 AM 40.3058 -75.4086 231° Southwest 376 433 25,100 1,438 Climbing New York Center
Thu 08:44:07 AM 40.2286 -75.5150 226° Southwest 387 445 26,500 1,339 Climbing New York Center
Thu 08:45:07 AM 40.1492 -75.6236 226° Southwest 408 470 27,800 1,322 Climbing New York Center
Thu 08:46:05 AM 40.0819 -75.7356 232° Southwest 413 475 29,100 1,600 Climbing New York Center
Thu 08:47:07 AM 40.0144 -75.8500 232° Southwest 413 475 31,000 1,525 Climbing New York Center
Thu 08:48:07 AM 39.9492 -75.9619 233° Southwest 402 463 32,200 1,220 Climbing New York Center
Thu 08:49:05 AM 39.8864 -76.0600 230° Southwest 402 463 33,400 1,627 Climbing New York Center
Thu 08:50:05 AM 39.8275 -76.1636 234° Southwest 392 451 35,400 1,150 Climbing New York Center
Thu 08:51:05 AM 39.7525 -76.2525 222° Southwest 373 429 35,700 298 Climbing New York Center
Thu 08:52:06 AM 39.6756 -76.3381 221° Southwest 368 423 36,000 205 Climbing New York Center
Thu 08:52:33 AM 39.6256 -76.3889 218° Southwest 368 423 36,000  Level Washington Center
Thu 08:53:33 AM 39.5561 -76.4717 223° Southwest 368 423 36,000  Level Washington Center
Thu 08:54:33 AM 39.4764 -76.5594 220° Southwest 373 429 36,000  Level Washington Center
Thu 08:55:33 AM 39.3964 -76.6497 221° Southwest 378 435 36,000  Level Washington Center
Thu 08:56:33 AM 39.3144 -76.7369 219° Southwest 378 435 36,000  Level Washington Center
Thu 08:57:33 AM 39.2383 -76.8269 222° Southwest 378 435 36,000  Level Washington Center
Thu 08:58:33 AM 39.1478 -76.9272 221° Southwest 388 447 36,000  Level Washington Center
Thu 08:59:33 AM 39.0656 -77.0086 218° Southwest 383 441 36,000  Level Washington Center
Thu 09:00:33 AM 38.9872 -77.0978 222° Southwest 383 441 36,000  Level Washington Center
Thu 09:01:33 AM 38.9092 -77.1894 222° Southwest 383 441 36,000  Level Washington Center
Thu 09:02:33 AM 38.8286 -77.2731 219° Southwest 383 441 36,000  Level Washington Center
Thu 09:03:33 AM 38.7503 -77.3619 222° Southwest 383 441 36,000 50 Level Washington Center
Thu 09:04:33 AM 38.6697 -77.4503 221° Southwest 383 441 36,100  Climbing Washington Center
Thu 09:05:33 AM 38.5892 -77.5333 219° Southwest 389 448 36,000 -50 Descending Washington Center
Thu 09:06:33 AM 38.5211 -77.6139 223° Southwest 384 442 36,000  Level Washington Center
Thu 09:07:33 AM 38.4342 -77.7042 219° Southwest 379 436 36,000  Level Washington Center
Thu 09:08:33 AM 38.3597 -77.7814 219° Southwest 379 436 36,000  Level Washington Center
Thu 09:09:33 AM 38.2744 -77.8769 221° Southwest 379 436 36,000  Level Washington Center
Thu 09:10:33 AM 38.1936 -77.9589 219° Southwest 379 436 36,000  Level Washington Center
Thu 09:11:33 AM 38.1147 -78.0461 221° Southwest 385 443 36,000  Level Washington Center
Thu 09:12:33 AM 38.0339 -78.1306 219° Southwest 385 443 36,000  Level Washington Center
Thu 09:13:33 AM 37.9633 -78.2072 221° Southwest 377 434 36,000  Level Washington Center
Thu 09:14:33 AM 37.8717 -78.2986 218° Southwest 377 434 36,000  Level Washington Center
Thu 09:15:33 AM 37.7950 -78.3642 214° Southwest 383 441 36,000  Level Washington Center
Thu 09:16:33 AM 37.7011 -78.4553 218° Southwest 383 441 36,000  Level Washington Center
Thu 09:17:33 AM 37.6158 -78.5333 216° Southwest 383 441 36,000  Level Washington Center
Thu 09:18:33 AM 37.5303 -78.6139 217° Southwest 383 441 36,000  Level Washington Center
Thu 09:19:33 AM 37.4450 -78.6942 217° Southwest 383 441 36,000  Level Washington Center
Thu 09:20:33 AM 37.3594 -78.7744 217° Southwest 383 441 36,000  Level Washington Center
Thu 09:21:33 AM 37.2739 -78.8517 216° Southwest 383 441 36,000  Level Washington Center
Thu 09:22:33 AM 37.1947 -78.9239 216° Southwest 388 447 36,000  Level Washington Center
Thu 09:23:33 AM 37.1089 -79.0061 217° Southwest 388 447 36,000  Level Washington Center
Thu 09:24:33 AM 37.0208 -79.0881 217° Southwest 388 447 36,000  Level Washington Center
Thu 09:25:33 AM 36.9331 -79.1672 216° Southwest 393 452 36,000  Level Washington Center
Thu 09:26:33 AM 36.8472 -79.2464 216° Southwest 393 452 36,000  Level Washington Center
Thu 09:27:33 AM 36.7614 -79.3278 217° Southwest 393 452 36,000  Level Washington Center
Thu 09:29:35 AM 36.5747 -79.4942 216° Southwest 393 452 36,000  Level Atlanta Center
Thu 09:30:35 AM 36.4900 -79.5714 216° Southwest 393 452 36,000  Level Atlanta Center
Thu 09:31:35 AM 36.4114 -79.6428 216° Southwest 393 452 36,000  Level Atlanta Center
Thu 09:32:36 AM 36.3264 -79.7197 216° Southwest 393 452 36,000  Level Atlanta Center
Thu 09:33:35 AM 36.2414 -79.7964 216° Southwest 393 452 36,000  Level Atlanta Center
Thu 09:34:35 AM 36.1586 -79.8700 216° Southwest 393 452 36,000  Level Atlanta Center
Thu 09:35:35 AM 36.0736 -79.9464 216° Southwest 388 447 36,000  Level Atlanta Center
Thu 09:36:35 AM 35.9672 -80.0108 206° Southwest 388 447 36,000  Level Atlanta Center
Thu 09:37:36 AM 35.8747 -80.0589 203° Southwest 382 440 36,000  Level Atlanta Center
Thu 09:38:35 AM 35.7764 -80.1097 203° Southwest 382 440 36,000 50 Level Atlanta Center
Thu 09:39:35 AM 35.6797 -80.1578 202° Southwest 382 440 36,100  Climbing Atlanta Center
Thu 09:40:35 AM 35.5894 -80.2056 203° Southwest 371 427 36,000 -50 Descending Atlanta Center
Thu 09:41:35 AM 35.5011 -80.2506 203° Southwest 354 407 36,000  Level Atlanta Center
Thu 09:42:35 AM 35.4175 -80.3078 209° Southwest 348 400 36,000  Level Atlanta Center
Thu 09:43:36 AM 35.3383 -80.3803 217° Southwest 353 406 36,000 397 Level Atlanta Center
Thu 09:44:36 AM 35.2589 -80.4472 215° Southwest 359 413 36,800 700 Climbing Atlanta Center
Thu 09:45:36 AM 35.1708 -80.5019 207° Southwest 354 407 37,400 282 Climbing Atlanta Center
Thu 09:48:51 AM 34.8594 -80.6486 201° Southwest 364 419 38,000 141 Climbing Jacksonville Center
Thu 09:49:51 AM 34.7664 -80.6914 201° Southwest 349 402 38,000  Level Jacksonville Center
Thu 09:50:51 AM 34.6733 -80.7392 203° Southwest 360 414 38,000  Level Jacksonville Center
Thu 09:51:51 AM 34.5822 -80.7767 199° South 360 414 38,000  Level Jacksonville Center
Thu 09:52:51 AM 34.4892 -80.8269 204° Southwest 366 421 38,000  Level Jacksonville Center
Thu 09:53:51 AM 34.3961 -80.8669 200° South 366 421 38,000  Level Jacksonville Center
Thu 09:54:51 AM 34.3069 -80.9042 199° South 356 410 38,000  Level Jacksonville Center
Thu 09:55:51 AM 34.2158 -80.9564 205° Southwest 356 410 38,000  Level Jacksonville Center
Thu 09:56:51 AM 34.1228 -80.9986 201° Southwest 356 410 38,000  Level Jacksonville Center
Thu 09:57:51 AM 34.0272 -81.0383 199° South 356 410 38,000  Level Jacksonville Center
Thu 09:58:51 AM 33.9361 -81.0803 201° Southwest 361 415 38,000  Level Jacksonville Center
Thu 09:59:51 AM 33.8386 -81.1247 201° Southwest 361 415 38,000 -50 Level Jacksonville Center
Thu 10:00:51 AM 33.7475 -81.1717 203° Southwest 367 422 37,900 -50 Descending Jacksonville Center
Thu 10:01:51 AM 33.6519 -81.2133 200° South 367 422 37,900 50 Level Jacksonville Center
Thu 10:02:51 AM 33.5608 -81.2575 202° Southwest 367 422 38,000 50 Climbing Jacksonville Center
Thu 10:03:51 AM 33.4633 -81.3017 201° Southwest 367 422 38,000  Level Jacksonville Center
Thu 10:04:51 AM 33.3658 -81.3481 202° Southwest 372 428 38,000  Level Jacksonville Center
Thu 10:05:51 AM 33.2722 -81.3844 198° South 366 421 38,000 -50 Level Jacksonville Center
Thu 10:06:51 AM 33.1767 -81.4308 202° Southwest 366 421 37,900 -50 Descending Jacksonville Center
Thu 10:07:51 AM 33.0856 -81.4744 202° Southwest 366 421 37,900  Level Jacksonville Center
Thu 10:08:51 AM 32.9919 -81.5156 200° South 366 421 37,900 50 Level Jacksonville Center
Thu 10:09:51 AM 32.8964 -81.5592 201° Southwest 366 421 38,000 50 Climbing Jacksonville Center
Thu 10:10:51 AM 32.8050 -81.6000 201° Southwest 366 421 38,000  Level Jacksonville Center
Thu 10:11:51 AM 32.7094 -81.6408 200° South 366 421 38,000  Level Jacksonville Center
Thu 10:12:51 AM 32.6181 -81.6842 202° Southwest 366 421 38,000  Level Jacksonville Center
Thu 10:13:51 AM 32.5328 -81.7222 201° Southwest 366 421 38,000 50 Level Jacksonville Center
Thu 10:14:51 AM 32.4267 -81.7703 201° Southwest 371 427 38,100  Climbing Jacksonville Center
Thu 10:15:51 AM 32.3311 -81.8108 200° South 371 427 38,000  Descending Jacksonville Center
Thu 10:16:51 AM 32.2436 -81.8536 202° Southwest 371 427 38,100  Climbing Jacksonville Center
Thu 10:17:51 AM 32.1397 -81.8964 199° South 366 421 38,000 -50 Descending Jacksonville Center
Thu 10:18:51 AM 32.0544 -81.9342 201° Southwest 366 421 38,000  Level Jacksonville Center
Thu 10:19:51 AM 31.9461 -81.9694 195° South 366 421 38,000  Level Jacksonville Center
Thu 10:20:51 AM 31.8417 -81.9803 185° South 376 433 38,000  Level Jacksonville Center
Thu 10:21:51 AM 31.7458 -81.9911 185° South 386 444 38,000  Level Jacksonville Center
Thu 10:22:51 AM 31.6247 -81.9997 183° South 391 450 38,000  Level Jacksonville Center
Thu 10:23:51 AM 31.5183 -82.0078 184° South 391 450 38,000  Level Jacksonville Center
Thu 10:24:51 AM 31.4222 -82.0211 187° South 385 443 38,000  Level Jacksonville Center
Thu 10:25:51 AM 31.3200 -82.0292 184° South 385 443 38,000  Level Jacksonville Center
Thu 10:26:51 AM 31.2158 -82.0422 186° South 385 443 38,000 -50 Level Jacksonville Center
Thu 10:27:51 AM 31.1136 -82.0506 184° South 385 443 37,900 -50 Descending Jacksonville Center
Thu 10:28:51 AM 31.0133 -82.0611 185° South 380 437 37,900 50 Level Jacksonville Center
Thu 10:29:51 AM 30.9089 -82.0669 183° South 380 437 38,000 50 Climbing Jacksonville Center
Thu 10:30:51 AM 30.8047 -82.0775 185° South 375 432 38,000  Level Jacksonville Center
Thu 10:31:51 AM 30.7044 -82.0881 185° South 370 426 38,000  Level Jacksonville Center
Thu 10:32:51 AM 30.6022 -82.0961 184° South 370 426 38,000  Level Jacksonville Center
Thu 10:33:51 AM 30.4978 -82.1019 183° South 370 426 38,000  Level Jacksonville Center
Thu 10:34:51 AM 30.3936 -82.1100 184° South 370 426 38,000  Level Jacksonville Center
Thu 10:35:51 AM 30.2914 -82.1203 185° South 370 426 38,000  Level Jacksonville Center
Thu 10:36:51 AM 30.1850 -82.1283 184° South 370 426 38,000  Level Jacksonville Center
Thu 10:37:51 AM 30.0783 -82.1100 172° South 375 432 38,000 -250 Level Jacksonville Center
Thu 10:38:51 AM 29.9569 -82.0894 172° South 388 447 37,500 -750 Descending Jacksonville Center
Thu 10:39:51 AM 29.8483 -82.0664 170° South 393 452 36,500 -900 Descending Jacksonville Center
Thu 10:40:51 AM 29.7586 -82.0503 171° South 400 460 35,700 -800 Descending Jacksonville Center
Thu 10:41:51 AM 29.6247 -82.0231 170° South 405 466 34,900 -800 Descending Jacksonville Center
Thu 10:42:51 AM 29.5139 -82.0000 170° South 410 472 34,100 -1,900 Descending Jacksonville Center
Thu 10:43:51 AM 29.3989 -81.9772 170° South 410 472 31,100 -2,650 Descending Jacksonville Center
Thu 10:44:51 AM 29.2839 -81.9544 170° South 415 478 28,800 -2,000 Descending Jacksonville Center
Thu 10:45:51 AM 29.1814 -81.9317 169° South 415 478 27,100 -900 Descending Jacksonville Center
Thu 10:46:51 AM 29.0772 -81.9397 184° South 408 470 27,000 -50 Descending Jacksonville Center
Thu 10:47:51 AM 28.9897 -81.9786 201° Southwest 352 405 27,000  Level Jacksonville Center
Thu 10:48:51 AM 28.8919 -82.0200 200° South 352 405 27,000  Level Jacksonville Center
Thu 10:49:51 AM 28.7917 -82.0067 173° South 346 398 27,000  Level Jacksonville Center
Thu 10:50:51 AM 28.7078 -81.9339 143° Southeast 344 396 27,000  Level Jacksonville Center
Thu 10:52:31 AM 28.5592 -81.8194 146° Southeast 413 475 27,000  Level Miami Center
Thu 10:53:31 AM 28.4603 -81.7819 162° South 389 448 27,000 -100 Level Miami Center
Thu 10:54:31 AM 28.3633 -81.7542 166° South 371 427 26,800 -900 Descending Miami Center
Thu 10:55:31 AM 28.2639 -81.7286 167° South 371 427 25,200 -1,400 Descending Miami Center
Thu 10:56:31 AM 28.1711 -81.7011 165° South 361 415 24,000 -600 Descending Miami Center
Thu 10:57:31 AM 28.0778 -81.6781 168° South 351 404 24,000  Level Miami Center
Thu 10:58:31 AM 27.9906 -81.6722 177° South 351 404 24,000 -200 Level Miami Center
Thu 10:59:31 AM 27.8972 -81.6542 170° South 346 398 23,600 -1,800 Descending Miami Center
Thu 11:00:31 AM 27.7894 -81.6308 169° South 351 404 20,400 -2,600 Descending Miami Center
Thu 11:01:31 AM 27.6878 -81.6125 171° South 370 426 18,400 -1,700 Descending Miami Center
Thu 11:02:31 AM 27.5883 -81.5942 171° South 370 426 17,000 -700 Descending Miami Center
Thu 11:03:31 AM 27.4867 -81.5736 170° South 370 426 17,000 -300 Level Miami Center
Thu 11:04:31 AM 27.3892 -81.5556 171° South 365 420 16,400 -1,000 Descending Miami Center
Thu 11:05:31 AM 27.3019 -81.5406 171° South 349 402 15,000 -1,900 Descending Miami Center
Thu 11:06:31 AM 27.2169 -81.5253 171° South 327 376 12,600 -1,850 Descending Miami Center
Thu 11:07:31 AM 27.1339 -81.5056 168° South 315 362 11,300 -1,300 Descending Miami Center
Thu 11:08:31 AM 27.0572 -81.4908 170° South 301 346 10,000 -650 Descending Miami Center
Thu 11:09:31 AM 26.9806 -81.4692 166° South 286 329 10,000 -500 Level Miami Center
Thu 11:10:31 AM 26.9089 -81.4314 155° Southeast 280 322 9,000 -1,350 Descending Miami Center
Thu 11:11:31 AM 26.8411 -81.3961 155° Southeast 285 328 7,300 -1,900 Descending Miami Center
Thu 11:12:31 AM 26.7747 -81.3775 166° South 275 316 5,200 -1,150 Descending Miami Center
Thu 11:13:31 AM 26.7156 -81.4031 201° Southwest 225 259 5,000 -900 Descending Miami Center
Thu 11:14:31 AM 26.7008 -81.4675 256° West 186 214 3,400 -1,000 Descending Miami Center
Thu 11:15:31 AM 26.6886 -81.5297 258° West 200 230 3,000 -400 Descending Miami Center
Thu 11:17:00 AM 26.5982 -81.6636 193° South  Level Estimated
Thu 11:24:00 AM 26.5333 -81.7500 318° Northwest  Level FlightAware Approximate
Thu 11:25:00 AM 26.5362 -81.7552 318° Northwest  Level Estimated
Thu 11:26:00 AM 26.5333 -81.7500 318° Northwest  Level FlightAware Approximate
Thu 11:27:00 AM 26.5362 -81.7552 318° Northwest  Level Estimated
Thu 11:28:00 AM 26.5333 -81.7500 318° Northwest  Level FlightAware Approximate
Thu 11:29:00 AM 26.5362 -81.7552 318° Northwest  Level Estimated

Login

Don't have an account? Register now (free) for customized features, flight alerts, and more!